sensor_id;sensor_type;location;lat;lon;timestamp;P1;durP1;ratioP1;P2;durP2;ratioP2
26060;SDS011;36331;51.378;0.018;2023-03-05T00:00:55;7.20;;;4.40;;
26060;SDS011;36331;51.378;0.018;2023-03-05T00:03:24;9.48;;;5.60;;
26060;SDS011;36331;51.378;0.018;2023-03-05T00:05:55;10.52;;;5.00;;
26060;SDS011;36331;51.378;0.018;2023-03-05T00:08:28;9.75;;;5.25;;
26060;SDS011;36331;51.378;0.018;2023-03-05T00:10:58;8.80;;;4.82;;
26060;SDS011;36331;51.378;0.018;2023-03-05T00:13:28;7.85;;;5.10;;
26060;SDS011;36331;51.378;0.018;2023-03-05T00:16:00;11.32;;;5.20;;
26060;SDS011;36331;51.378;0.018;2023-03-05T00:18:31;10.25;;;6.20;;
26060;SDS011;36331;51.378;0.018;2023-03-05T00:21:00;7.65;;;4.65;;
26060;SDS011;36331;51.378;0.018;2023-03-05T00:26:03;7.35;;;4.93;;
26060;SDS011;36331;51.378;0.018;2023-03-05T00:28:33;7.90;;;4.60;;
26060;SDS011;36331;51.378;0.018;2023-03-05T00:31:03;11.98;;;4.93;;
26060;SDS011;36331;51.378;0.018;2023-03-05T00:33:34;8.45;;;5.43;;
26060;SDS011;36331;51.378;0.018;2023-03-05T00:36:04;8.02;;;4.80;;
26060;SDS011;36331;51.378;0.018;2023-03-05T00:38:34;6.32;;;4.90;;
26060;SDS011;36331;51.378;0.018;2023-03-05T00:41:05;8.13;;;4.72;;
26060;SDS011;36331;51.378;0.018;2023-03-05T00:43:37;7.88;;;4.80;;
26060;SDS011;36331;51.378;0.018;2023-03-05T00:46:06;7.60;;;4.70;;
26060;SDS011;36331;51.378;0.018;2023-03-05T00:48:36;9.15;;;4.80;;
26060;SDS011;36331;51.378;0.018;2023-03-05T00:51:06;11.77;;;7.20;;
26060;SDS011;36331;51.378;0.018;2023-03-05T00:53:35;7.78;;;4.70;;
26060;SDS011;36331;51.378;0.018;2023-03-05T00:56:06;7.55;;;5.32;;
26060;SDS011;36331;51.378;0.018;2023-03-05T00:58:36;9.52;;;5.22;;
26060;SDS011;36331;51.378;0.018;2023-03-05T01:01:05;6.47;;;4.68;;
26060;SDS011;36331;51.378;0.018;2023-03-05T01:03:34;7.32;;;5.20;;
26060;SDS011;36331;51.378;0.018;2023-03-05T01:06:04;8.15;;;5.53;;
26060;SDS011;36331;51.378;0.018;2023-03-05T01:08:34;9.23;;;5.20;;
26060;SDS011;36331;51.378;0.018;2023-03-05T01:11:04;8.30;;;5.50;;
26060;SDS011;36331;51.378;0.018;2023-03-05T01:13:36;5.47;;;4.43;;
26060;SDS011;36331;51.378;0.018;2023-03-05T01:16:05;7.20;;;5.43;;
26060;SDS011;36331;51.378;0.018;2023-03-05T01:18:36;10.20;;;5.38;;
26060;SDS011;36331;51.378;0.018;2023-03-05T01:21:06;9.53;;;6.27;;
26060;SDS011;36331;51.378;0.018;2023-03-05T01:23:35;8.57;;;5.28;;
26060;SDS011;36331;51.378;0.018;2023-03-05T01:26:05;11.57;;;6.10;;
26060;SDS011;36331;51.378;0.018;2023-03-05T01:28:36;7.45;;;5.40;;
26060;SDS011;36331;51.378;0.018;2023-03-05T01:31:06;9.98;;;5.90;;
26060;SDS011;36331;51.378;0.018;2023-03-05T01:36:07;7.20;;;4.93;;
26060;SDS011;36331;51.378;0.018;2023-03-05T01:38:39;10.48;;;6.15;;
26060;SDS011;36331;51.378;0.018;2023-03-05T01:41:09;12.43;;;5.68;;
26060;SDS011;36331;51.378;0.018;2023-03-05T01:43:40;6.45;;;5.15;;
26060;SDS011;36331;51.378;0.018;2023-03-05T01:48:59;10.75;;;5.85;;
26060;SDS011;36331;51.378;0.018;2023-03-05T01:51:31;8.55;;;5.40;;
26060;SDS011;36331;51.378;0.018;2023-03-05T01:54:00;8.90;;;5.88;;
26060;SDS011;36331;51.378;0.018;2023-03-05T01:56:30;14.18;;;6.78;;
26060;SDS011;36331;51.378;0.018;2023-03-05T01:59:00;7.55;;;5.15;;
26060;SDS011;36331;51.378;0.018;2023-03-05T02:01:31;9.10;;;5.38;;
26060;SDS011;36331;51.378;0.018;2023-03-05T02:04:01;9.33;;;6.07;;
26060;SDS011;36331;51.378;0.018;2023-03-05T02:06:30;9.82;;;7.18;;
26060;SDS011;36331;51.378;0.018;2023-03-05T02:09:00;10.35;;;5.57;;
26060;SDS011;36331;51.378;0.018;2023-03-05T02:11:29;11.85;;;7.40;;
26060;SDS011;36331;51.378;0.018;2023-03-05T02:13:58;13.55;;;6.07;;
26060;SDS011;36331;51.378;0.018;2023-03-05T02:16:29;6.45;;;4.95;;
26060;SDS011;36331;51.378;0.018;2023-03-05T02:19:03;11.27;;;5.85;;
26060;SDS011;36331;51.378;0.018;2023-03-05T02:21:37;8.52;;;6.15;;
26060;SDS011;36331;51.378;0.018;2023-03-05T02:24:08;9.10;;;5.18;;
26060;SDS011;36331;51.378;0.018;2023-03-05T02:26:39;7.68;;;5.57;;
26060;SDS011;36331;51.378;0.018;2023-03-05T02:29:09;7.40;;;5.28;;
26060;SDS011;36331;51.378;0.018;2023-03-05T02:34:09;9.60;;;5.60;;
26060;SDS011;36331;51.378;0.018;2023-03-05T02:36:40;9.18;;;5.97;;
26060;SDS011;36331;51.378;0.018;2023-03-05T02:41:39;9.13;;;5.53;;
26060;SDS011;36331;51.378;0.018;2023-03-05T02:44:08;7.75;;;6.00;;
26060;SDS011;36331;51.378;0.018;2023-03-05T02:46:38;8.98;;;6.10;;
26060;SDS011;36331;51.378;0.018;2023-03-05T02:49:07;9.93;;;6.32;;
26060;SDS011;36331;51.378;0.018;2023-03-05T02:51:37;9.27;;;6.30;;
26060;SDS011;36331;51.378;0.018;2023-03-05T02:54:08;11.05;;;6.57;;
26060;SDS011;36331;51.378;0.018;2023-03-05T02:56:38;8.05;;;5.50;;
26060;SDS011;36331;51.378;0.018;2023-03-05T02:59:10;8.82;;;6.10;;
26060;SDS011;36331;51.378;0.018;2023-03-05T03:01:39;8.57;;;6.10;;
26060;SDS011;36331;51.378;0.018;2023-03-05T03:04:11;11.40;;;5.85;;
26060;SDS011;36331;51.378;0.018;2023-03-05T03:06:40;9.60;;;6.13;;
26060;SDS011;36331;51.378;0.018;2023-03-05T03:09:11;9.65;;;5.78;;
26060;SDS011;36331;51.378;0.018;2023-03-05T03:11:41;7.85;;;5.65;;
26060;SDS011;36331;51.378;0.018;2023-03-05T03:14:10;10.50;;;6.50;;
26060;SDS011;36331;51.378;0.018;2023-03-05T03:16:40;7.20;;;5.85;;
26060;SDS011;36331;51.378;0.018;2023-03-05T03:19:09;8.52;;;6.47;;
26060;SDS011;36331;51.378;0.018;2023-03-05T03:21:38;8.32;;;6.28;;
26060;SDS011;36331;51.378;0.018;2023-03-05T03:24:07;9.95;;;6.13;;
26060;SDS011;36331;51.378;0.018;2023-03-05T03:26:37;6.55;;;5.85;;
26060;SDS011;36331;51.378;0.018;2023-03-05T03:29:07;9.60;;;6.75;;
26060;SDS011;36331;51.378;0.018;2023-03-05T03:31:36;7.97;;;6.05;;
26060;SDS011;36331;51.378;0.018;2023-03-05T03:34:07;9.23;;;6.00;;
26060;SDS011;36331;51.378;0.018;2023-03-05T03:36:36;8.95;;;5.80;;
26060;SDS011;36331;51.378;0.018;2023-03-05T03:39:05;9.32;;;6.25;;
26060;SDS011;36331;51.378;0.018;2023-03-05T03:41:35;9.55;;;6.22;;
26060;SDS011;36331;51.378;0.018;2023-03-05T03:44:06;11.52;;;6.88;;
26060;SDS011;36331;51.378;0.018;2023-03-05T03:49:06;10.43;;;6.50;;
26060;SDS011;36331;51.378;0.018;2023-03-05T03:51:35;10.82;;;5.70;;
26060;SDS011;36331;51.378;0.018;2023-03-05T03:54:04;8.57;;;6.90;;
26060;SDS011;36331;51.378;0.018;2023-03-05T03:56:33;9.02;;;6.45;;
26060;SDS011;36331;51.378;0.018;2023-03-05T03:59:02;10.93;;;6.75;;
26060;SDS011;36331;51.378;0.018;2023-03-05T04:01:33;9.65;;;6.43;;
26060;SDS011;36331;51.378;0.018;2023-03-05T04:04:02;11.57;;;6.00;;
26060;SDS011;36331;51.378;0.018;2023-03-05T04:06:32;15.57;;;6.53;;
26060;SDS011;36331;51.378;0.018;2023-03-05T04:09:02;11.45;;;6.72;;
26060;SDS011;36331;51.378;0.018;2023-03-05T04:11:31;9.98;;;6.70;;
26060;SDS011;36331;51.378;0.018;2023-03-05T04:14:01;9.85;;;6.28;;
26060;SDS011;36331;51.378;0.018;2023-03-05T04:16:30;10.40;;;6.60;;
26060;SDS011;36331;51.378;0.018;2023-03-05T04:19:00;10.90;;;6.70;;
26060;SDS011;36331;51.378;0.018;2023-03-05T04:24:00;9.50;;;6.45;;
26060;SDS011;36331;51.378;0.018;2023-03-05T04:26:29;12.07;;;6.53;;
26060;SDS011;36331;51.378;0.018;2023-03-05T04:28:58;10.95;;;5.93;;
26060;SDS011;36331;51.378;0.018;2023-03-05T04:31:27;9.07;;;5.88;;
26060;SDS011;36331;51.378;0.018;2023-03-05T04:33:58;13.50;;;6.90;;
26060;SDS011;36331;51.378;0.018;2023-03-05T04:36:28;8.85;;;6.35;;
26060;SDS011;36331;51.378;0.018;2023-03-05T04:38:58;9.48;;;6.95;;
26060;SDS011;36331;51.378;0.018;2023-03-05T04:41:28;9.60;;;6.30;;
26060;SDS011;36331;51.378;0.018;2023-03-05T04:43:57;10.13;;;6.55;;
26060;SDS011;36331;51.378;0.018;2023-03-05T04:46:27;13.82;;;6.43;;
26060;SDS011;36331;51.378;0.018;2023-03-05T04:48:57;9.65;;;6.68;;
26060;SDS011;36331;51.378;0.018;2023-03-05T04:51:26;11.85;;;6.88;;
26060;SDS011;36331;51.378;0.018;2023-03-05T04:53:58;9.70;;;6.22;;
26060;SDS011;36331;51.378;0.018;2023-03-05T04:56:28;12.73;;;6.40;;
26060;SDS011;36331;51.378;0.018;2023-03-05T04:58:57;10.10;;;6.05;;
26060;SDS011;36331;51.378;0.018;2023-03-05T05:01:27;13.20;;;6.45;;
26060;SDS011;36331;51.378;0.018;2023-03-05T05:03:56;9.27;;;6.72;;
26060;SDS011;36331;51.378;0.018;2023-03-05T05:06:26;8.60;;;6.25;;
26060;SDS011;36331;51.378;0.018;2023-03-05T05:08:55;9.60;;;6.55;;
26060;SDS011;36331;51.378;0.018;2023-03-05T05:11:25;10.13;;;5.93;;
26060;SDS011;36331;51.378;0.018;2023-03-05T05:13:54;9.23;;;5.82;;
26060;SDS011;36331;51.378;0.018;2023-03-05T05:16:23;11.70;;;7.20;;
26060;SDS011;36331;51.378;0.018;2023-03-05T05:18:53;11.80;;;7.50;;
26060;SDS011;36331;51.378;0.018;2023-03-05T05:21:22;9.15;;;7.28;;
26060;SDS011;36331;51.378;0.018;2023-03-05T05:23:51;9.85;;;6.18;;
26060;SDS011;36331;51.378;0.018;2023-03-05T05:26:20;9.75;;;6.90;;
26060;SDS011;36331;51.378;0.018;2023-03-05T05:28:51;9.63;;;6.88;;
26060;SDS011;36331;51.378;0.018;2023-03-05T05:31:21;10.25;;;6.65;;
26060;SDS011;36331;51.378;0.018;2023-03-05T05:33:50;11.35;;;6.90;;
26060;SDS011;36331;51.378;0.018;2023-03-05T05:36:21;9.13;;;6.80;;
26060;SDS011;36331;51.378;0.018;2023-03-05T05:38:50;10.85;;;7.15;;
26060;SDS011;36331;51.378;0.018;2023-03-05T05:41:19;10.50;;;6.70;;
26060;SDS011;36331;51.378;0.018;2023-03-05T05:43:51;14.95;;;7.30;;
26060;SDS011;36331;51.378;0.018;2023-03-05T05:46:20;13.82;;;8.30;;
26060;SDS011;36331;51.378;0.018;2023-03-05T05:48:51;13.32;;;6.28;;
26060;SDS011;36331;51.378;0.018;2023-03-05T05:51:21;12.40;;;7.85;;
26060;SDS011;36331;51.378;0.018;2023-03-05T05:53:50;10.73;;;6.95;;
26060;SDS011;36331;51.378;0.018;2023-03-05T05:56:20;12.23;;;8.00;;
26060;SDS011;36331;51.378;0.018;2023-03-05T05:58:50;12.57;;;7.00;;
26060;SDS011;36331;51.378;0.018;2023-03-05T06:01:20;11.02;;;7.05;;
26060;SDS011;36331;51.378;0.018;2023-03-05T06:03:50;11.88;;;6.90;;
26060;SDS011;36331;51.378;0.018;2023-03-05T06:06:19;10.48;;;6.80;;
26060;SDS011;36331;51.378;0.018;2023-03-05T06:08:49;12.45;;;7.55;;
26060;SDS011;36331;51.378;0.018;2023-03-05T06:11:18;12.90;;;7.07;;
26060;SDS011;36331;51.378;0.018;2023-03-05T06:13:48;11.27;;;7.13;;
26060;SDS011;36331;51.378;0.018;2023-03-05T06:16:20;11.57;;;7.97;;
26060;SDS011;36331;51.378;0.018;2023-03-05T06:21:18;14.40;;;7.78;;
26060;SDS011;36331;51.378;0.018;2023-03-05T06:23:48;14.25;;;7.65;;
26060;SDS011;36331;51.378;0.018;2023-03-05T06:26:18;11.23;;;7.55;;
26060;SDS011;36331;51.378;0.018;2023-03-05T06:28:48;12.55;;;6.90;;
26060;SDS011;36331;51.378;0.018;2023-03-05T06:31:19;14.32;;;8.75;;
26060;SDS011;36331;51.378;0.018;2023-03-05T06:33:49;11.88;;;8.18;;
26060;SDS011;36331;51.378;0.018;2023-03-05T06:36:19;12.93;;;7.85;;
26060;SDS011;36331;51.378;0.018;2023-03-05T06:38:49;11.90;;;7.28;;
26060;SDS011;36331;51.378;0.018;2023-03-05T06:41:20;15.93;;;7.95;;
26060;SDS011;36331;51.378;0.018;2023-03-05T06:43:51;12.70;;;7.28;;
26060;SDS011;36331;51.378;0.018;2023-03-05T06:46:22;15.05;;;8.07;;
26060;SDS011;36331;51.378;0.018;2023-03-05T06:48:53;10.65;;;7.20;;
26060;SDS011;36331;51.378;0.018;2023-03-05T06:51:23;10.25;;;7.03;;
26060;SDS011;36331;51.378;0.018;2023-03-05T06:53:53;11.70;;;7.22;;
26060;SDS011;36331;51.378;0.018;2023-03-05T06:56:23;13.60;;;9.30;;
26060;SDS011;36331;51.378;0.018;2023-03-05T06:58:52;15.50;;;7.93;;
26060;SDS011;36331;51.378;0.018;2023-03-05T07:01:23;10.27;;;7.20;;
26060;SDS011;36331;51.378;0.018;2023-03-05T07:03:53;13.37;;;8.43;;
26060;SDS011;36331;51.378;0.018;2023-03-05T07:06:25;11.57;;;7.85;;
26060;SDS011;36331;51.378;0.018;2023-03-05T07:08:54;16.00;;;8.27;;
26060;SDS011;36331;51.378;0.018;2023-03-05T07:11:24;10.38;;;7.57;;
26060;SDS011;36331;51.378;0.018;2023-03-05T07:13:53;15.27;;;9.13;;
26060;SDS011;36331;51.378;0.018;2023-03-05T07:16:24;12.77;;;8.30;;
26060;SDS011;36331;51.378;0.018;2023-03-05T07:18:54;13.57;;;7.78;;
26060;SDS011;36331;51.378;0.018;2023-03-05T07:21:24;10.63;;;7.43;;
26060;SDS011;36331;51.378;0.018;2023-03-05T07:23:55;12.38;;;7.53;;
26060;SDS011;36331;51.378;0.018;2023-03-05T07:26:25;13.00;;;7.10;;
26060;SDS011;36331;51.378;0.018;2023-03-05T07:28:54;10.38;;;6.95;;
26060;SDS011;36331;51.378;0.018;2023-03-05T07:31:24;12.20;;;6.93;;
26060;SDS011;36331;51.378;0.018;2023-03-05T07:33:57;12.82;;;7.75;;
26060;SDS011;36331;51.378;0.018;2023-03-05T07:36:26;12.23;;;7.65;;
26060;SDS011;36331;51.378;0.018;2023-03-05T07:38:55;9.90;;;7.28;;
26060;SDS011;36331;51.378;0.018;2023-03-05T07:41:25;11.27;;;7.30;;
26060;SDS011;36331;51.378;0.018;2023-03-05T07:43:54;11.13;;;7.35;;
26060;SDS011;36331;51.378;0.018;2023-03-05T07:46:25;11.45;;;7.85;;
26060;SDS011;36331;51.378;0.018;2023-03-05T07:48:55;12.30;;;7.70;;
26060;SDS011;36331;51.378;0.018;2023-03-05T07:51:25;11.00;;;7.03;;
26060;SDS011;36331;51.378;0.018;2023-03-05T07:53:54;10.95;;;8.05;;
26060;SDS011;36331;51.378;0.018;2023-03-05T07:56:25;10.90;;;7.43;;
26060;SDS011;36331;51.378;0.018;2023-03-05T07:58:55;12.53;;;7.60;;
26060;SDS011;36331;51.378;0.018;2023-03-05T08:01:28;10.55;;;6.65;;
26060;SDS011;36331;51.378;0.018;2023-03-05T08:03:58;11.50;;;6.80;;
26060;SDS011;36331;51.378;0.018;2023-03-05T08:06:27;10.63;;;7.63;;
26060;SDS011;36331;51.378;0.018;2023-03-05T08:08:56;10.05;;;6.65;;
26060;SDS011;36331;51.378;0.018;2023-03-05T08:11:25;8.93;;;6.47;;
26060;SDS011;36331;51.378;0.018;2023-03-05T08:13:55;11.07;;;6.57;;
26060;SDS011;36331;51.378;0.018;2023-03-05T08:16:25;11.40;;;6.82;;
26060;SDS011;36331;51.378;0.018;2023-03-05T08:18:56;13.73;;;7.10;;
26060;SDS011;36331;51.378;0.018;2023-03-05T08:21:26;9.05;;;6.70;;
26060;SDS011;36331;51.378;0.018;2023-03-05T08:23:56;11.23;;;7.35;;
26060;SDS011;36331;51.378;0.018;2023-03-05T08:26:26;12.57;;;8.63;;
26060;SDS011;36331;51.378;0.018;2023-03-05T08:28:56;10.95;;;6.20;;
26060;SDS011;36331;51.378;0.018;2023-03-05T08:31:25;10.23;;;6.60;;
26060;SDS011;36331;51.378;0.018;2023-03-05T08:33:58;9.30;;;7.07;;
26060;SDS011;36331;51.378;0.018;2023-03-05T08:36:28;9.90;;;6.75;;
26060;SDS011;36331;51.378;0.018;2023-03-05T08:38:57;8.82;;;7.05;;
26060;SDS011;36331;51.378;0.018;2023-03-05T08:41:26;10.07;;;7.18;;
26060;SDS011;36331;51.378;0.018;2023-03-05T08:43:55;13.23;;;7.43;;
26060;SDS011;36331;51.378;0.018;2023-03-05T08:46:24;9.70;;;6.47;;
26060;SDS011;36331;51.378;0.018;2023-03-05T08:48:53;10.63;;;7.28;;
26060;SDS011;36331;51.378;0.018;2023-03-05T08:51:24;10.90;;;7.43;;
26060;SDS011;36331;51.378;0.018;2023-03-05T08:53:54;12.50;;;7.55;;
26060;SDS011;36331;51.378;0.018;2023-03-05T08:56:23;14.02;;;7.45;;
26060;SDS011;36331;51.378;0.018;2023-03-05T08:58:54;12.57;;;7.43;;
26060;SDS011;36331;51.378;0.018;2023-03-05T09:01:23;11.85;;;6.65;;
26060;SDS011;36331;51.378;0.018;2023-03-05T09:03:53;11.65;;;6.63;;
26060;SDS011;36331;51.378;0.018;2023-03-05T09:06:24;10.65;;;7.03;;
26060;SDS011;36331;51.378;0.018;2023-03-05T09:08:53;12.85;;;7.93;;
26060;SDS011;36331;51.378;0.018;2023-03-05T09:11:26;13.50;;;7.38;;
26060;SDS011;36331;51.378;0.018;2023-03-05T09:13:56;12.30;;;7.30;;
26060;SDS011;36331;51.378;0.018;2023-03-05T09:16:25;10.65;;;6.90;;
26060;SDS011;36331;51.378;0.018;2023-03-05T09:18:55;10.05;;;7.40;;
26060;SDS011;36331;51.378;0.018;2023-03-05T09:21:25;12.57;;;7.53;;
26060;SDS011;36331;51.378;0.018;2023-03-05T09:23:55;12.60;;;7.33;;
26060;SDS011;36331;51.378;0.018;2023-03-05T09:26:26;12.23;;;7.25;;
26060;SDS011;36331;51.378;0.018;2023-03-05T09:28:55;12.30;;;7.55;;
26060;SDS011;36331;51.378;0.018;2023-03-05T09:31:24;12.98;;;8.40;;
26060;SDS011;36331;51.378;0.018;2023-03-05T09:33:53;13.20;;;7.90;;
26060;SDS011;36331;51.378;0.018;2023-03-05T09:36:23;12.07;;;7.82;;
26060;SDS011;36331;51.378;0.018;2023-03-05T09:38:54;13.13;;;8.63;;
26060;SDS011;36331;51.378;0.018;2023-03-05T09:41:26;13.82;;;8.18;;
26060;SDS011;36331;51.378;0.018;2023-03-05T09:43:59;11.43;;;7.70;;
26060;SDS011;36331;51.378;0.018;2023-03-05T09:46:31;15.73;;;9.43;;
26060;SDS011;36331;51.378;0.018;2023-03-05T09:49:12;12.90;;;8.70;;
26060;SDS011;36331;51.378;0.018;2023-03-05T09:51:47;15.43;;;8.90;;
26060;SDS011;36331;51.378;0.018;2023-03-05T09:54:29;12.75;;;8.90;;
26060;SDS011;36331;51.378;0.018;2023-03-05T09:57:03;13.40;;;9.32;;
26060;SDS011;36331;51.378;0.018;2023-03-05T09:59:34;14.40;;;8.57;;
26060;SDS011;36331;51.378;0.018;2023-03-05T10:02:11;13.48;;;8.63;;
26060;SDS011;36331;51.378;0.018;2023-03-05T10:04:42;11.82;;;7.85;;
26060;SDS011;36331;51.378;0.018;2023-03-05T10:07:14;14.60;;;9.07;;
26060;SDS011;36331;51.378;0.018;2023-03-05T10:09:47;12.95;;;8.70;;
26060;SDS011;36331;51.378;0.018;2023-03-05T10:12:19;15.48;;;9.50;;
26060;SDS011;36331;51.378;0.018;2023-03-05T10:14:54;17.08;;;9.23;;
26060;SDS011;36331;51.378;0.018;2023-03-05T10:17:37;13.43;;;8.43;;
26060;SDS011;36331;51.378;0.018;2023-03-05T10:23:01;16.63;;;9.95;;
26060;SDS011;36331;51.378;0.018;2023-03-05T10:25:39;15.15;;;9.35;;
26060;SDS011;36331;51.378;0.018;2023-03-05T10:28:13;14.95;;;9.27;;
26060;SDS011;36331;51.378;0.018;2023-03-05T10:30:51;15.80;;;9.63;;
26060;SDS011;36331;51.378;0.018;2023-03-05T10:33:25;15.85;;;10.60;;
26060;SDS011;36331;51.378;0.018;2023-03-05T10:36:05;14.02;;;9.30;;
26060;SDS011;36331;51.378;0.018;2023-03-05T10:38:49;17.17;;;10.43;;
26060;SDS011;36331;51.378;0.018;2023-03-05T10:41:30;14.73;;;8.82;;
26060;SDS011;36331;51.378;0.018;2023-03-05T10:44:02;17.55;;;10.23;;
26060;SDS011;36331;51.378;0.018;2023-03-05T10:46:33;17.77;;;11.55;;
26060;SDS011;36331;51.378;0.018;2023-03-05T10:49:05;16.00;;;10.00;;
26060;SDS011;36331;51.378;0.018;2023-03-05T10:51:40;17.88;;;11.13;;
26060;SDS011;36331;51.378;0.018;2023-03-05T10:54:13;14.82;;;10.25;;
26060;SDS011;36331;51.378;0.018;2023-03-05T10:56:47;17.15;;;9.98;;
26060;SDS011;36331;51.378;0.018;2023-03-05T11:02:00;18.67;;;11.32;;
26060;SDS011;36331;51.378;0.018;2023-03-05T11:04:32;17.73;;;10.70;;
26060;SDS011;36331;51.378;0.018;2023-03-05T11:07:07;17.17;;;10.25;;
26060;SDS011;36331;51.378;0.018;2023-03-05T11:09:53;16.38;;;9.68;;
26060;SDS011;36331;51.378;0.018;2023-03-05T11:12:32;17.77;;;9.20;;
26060;SDS011;36331;51.378;0.018;2023-03-05T11:17:32;15.25;;;9.93;;
26060;SDS011;36331;51.378;0.018;2023-03-05T11:20:26;15.60;;;9.52;;
26060;SDS011;36331;51.378;0.018;2023-03-05T11:23:10;14.63;;;9.40;;
26060;SDS011;36331;51.378;0.018;2023-03-05T11:25:50;15.85;;;10.23;;
26060;SDS011;36331;51.378;0.018;2023-03-05T11:28:22;14.50;;;9.18;;
26060;SDS011;36331;51.378;0.018;2023-03-05T11:31:01;13.43;;;8.57;;
26060;SDS011;36331;51.378;0.018;2023-03-05T11:33:30;16.40;;;9.70;;
26060;SDS011;36331;51.378;0.018;2023-03-05T11:36:09;17.88;;;10.18;;
26060;SDS011;36331;51.378;0.018;2023-03-05T11:38:43;17.80;;;10.68;;
26060;SDS011;36331;51.378;0.018;2023-03-05T11:41:13;20.60;;;10.93;;
26060;SDS011;36331;51.378;0.018;2023-03-05T11:43:45;16.77;;;10.10;;
26060;SDS011;36331;51.378;0.018;2023-03-05T11:46:16;17.92;;;11.05;;
26060;SDS011;36331;51.378;0.018;2023-03-05T11:48:48;18.60;;;11.18;;
26060;SDS011;36331;51.378;0.018;2023-03-05T11:51:19;16.15;;;10.13;;
26060;SDS011;36331;51.378;0.018;2023-03-05T11:53:50;15.10;;;9.35;;
26060;SDS011;36331;51.378;0.018;2023-03-05T11:56:24;17.50;;;9.60;;
26060;SDS011;36331;51.378;0.018;2023-03-05T11:58:57;15.52;;;10.15;;
26060;SDS011;36331;51.378;0.018;2023-03-05T12:01:30;17.23;;;9.30;;
26060;SDS011;36331;51.378;0.018;2023-03-05T12:03:59;16.57;;;10.07;;
26060;SDS011;36331;51.378;0.018;2023-03-05T12:06:33;19.33;;;10.88;;
26060;SDS011;36331;51.378;0.018;2023-03-05T12:09:05;19.27;;;11.25;;
26060;SDS011;36331;51.378;0.018;2023-03-05T12:11:36;18.02;;;11.23;;
26060;SDS011;36331;51.378;0.018;2023-03-05T12:14:08;19.73;;;11.45;;
26060;SDS011;36331;51.378;0.018;2023-03-05T12:16:41;20.58;;;11.60;;
26060;SDS011;36331;51.378;0.018;2023-03-05T12:19:25;15.88;;;10.13;;
26060;SDS011;36331;51.378;0.018;2023-03-05T12:21:59;18.88;;;11.55;;
26060;SDS011;36331;51.378;0.018;2023-03-05T12:24:32;18.52;;;11.07;;
26060;SDS011;36331;51.378;0.018;2023-03-05T12:27:05;17.63;;;11.07;;
26060;SDS011;36331;51.378;0.018;2023-03-05T12:29:41;19.02;;;10.27;;
26060;SDS011;36331;51.378;0.018;2023-03-05T12:35:20;19.55;;;9.98;;
26060;SDS011;36331;51.378;0.018;2023-03-05T12:40:19;21.30;;;10.50;;
26060;SDS011;36331;51.378;0.018;2023-03-05T12:42:52;18.25;;;11.32;;
26060;SDS011;36331;51.378;0.018;2023-03-05T12:45:36;17.20;;;10.63;;
26060;SDS011;36331;51.378;0.018;2023-03-05T12:50:56;23.73;;;10.82;;
26060;SDS011;36331;51.378;0.018;2023-03-05T12:53:25;18.07;;;10.17;;
26060;SDS011;36331;51.378;0.018;2023-03-05T12:55:56;17.23;;;9.68;;
26060;SDS011;36331;51.378;0.018;2023-03-05T12:58:31;18.97;;;11.27;;
26060;SDS011;36331;51.378;0.018;2023-03-05T13:01:03;19.70;;;11.10;;
26060;SDS011;36331;51.378;0.018;2023-03-05T13:03:35;15.95;;;10.35;;
26060;SDS011;36331;51.378;0.018;2023-03-05T13:06:05;16.20;;;10.32;;
26060;SDS011;36331;51.378;0.018;2023-03-05T13:08:34;20.85;;;10.05;;
26060;SDS011;36331;51.378;0.018;2023-03-05T13:11:04;18.85;;;9.85;;
26060;SDS011;36331;51.378;0.018;2023-03-05T13:13:35;17.63;;;10.17;;
26060;SDS011;36331;51.378;0.018;2023-03-05T13:16:14;15.88;;;9.45;;
26060;SDS011;36331;51.378;0.018;2023-03-05T13:21:16;15.55;;;9.52;;
26060;SDS011;36331;51.378;0.018;2023-03-05T13:23:46;15.48;;;9.80;;
26060;SDS011;36331;51.378;0.018;2023-03-05T13:26:15;14.48;;;9.23;;
26060;SDS011;36331;51.378;0.018;2023-03-05T13:29:01;16.13;;;10.40;;
26060;SDS011;36331;51.378;0.018;2023-03-05T13:31:32;20.10;;;10.57;;
26060;SDS011;36331;51.378;0.018;2023-03-05T13:34:07;17.15;;;10.75;;
26060;SDS011;36331;51.378;0.018;2023-03-05T13:36:37;15.88;;;8.65;;
26060;SDS011;36331;51.378;0.018;2023-03-05T13:39:06;13.93;;;8.75;;
26060;SDS011;36331;51.378;0.018;2023-03-05T13:41:37;24.38;;;11.90;;
26060;SDS011;36331;51.378;0.018;2023-03-05T13:44:16;17.92;;;10.20;;
26060;SDS011;36331;51.378;0.018;2023-03-05T13:46:49;18.63;;;9.55;;
26060;SDS011;36331;51.378;0.018;2023-03-05T13:49:20;15.45;;;8.75;;
26060;SDS011;36331;51.378;0.018;2023-03-05T13:51:51;19.65;;;10.48;;
26060;SDS011;36331;51.378;0.018;2023-03-05T13:54:21;16.48;;;9.73;;
26060;SDS011;36331;51.378;0.018;2023-03-05T13:56:52;12.57;;;8.20;;
26060;SDS011;36331;51.378;0.018;2023-03-05T13:59:22;14.38;;;8.55;;
26060;SDS011;36331;51.378;0.018;2023-03-05T14:01:53;13.50;;;8.18;;
26060;SDS011;36331;51.378;0.018;2023-03-05T14:04:22;11.23;;;6.28;;
26060;SDS011;36331;51.378;0.018;2023-03-05T14:06:53;16.98;;;10.50;;
26060;SDS011;36331;51.378;0.018;2023-03-05T14:09:25;16.33;;;11.00;;
26060;SDS011;36331;51.378;0.018;2023-03-05T14:11:55;15.32;;;8.73;;
26060;SDS011;36331;51.378;0.018;2023-03-05T14:14:25;14.37;;;7.97;;
26060;SDS011;36331;51.378;0.018;2023-03-05T14:19:40;12.10;;;7.47;;
26060;SDS011;36331;51.378;0.018;2023-03-05T14:22:26;12.55;;;8.55;;
26060;SDS011;36331;51.378;0.018;2023-03-05T14:24:56;17.02;;;8.05;;
26060;SDS011;36331;51.378;0.018;2023-03-05T14:27:26;13.20;;;8.32;;
26060;SDS011;36331;51.378;0.018;2023-03-05T14:29:59;11.50;;;8.02;;
26060;SDS011;36331;51.378;0.018;2023-03-05T14:32:29;12.48;;;7.38;;
26060;SDS011;36331;51.378;0.018;2023-03-05T14:35:02;12.95;;;7.70;;
26060;SDS011;36331;51.378;0.018;2023-03-05T14:40:02;16.77;;;11.80;;
26060;SDS011;36331;51.378;0.018;2023-03-05T14:42:33;14.32;;;9.68;;
26060;SDS011;36331;51.378;0.018;2023-03-05T14:45:09;12.13;;;8.05;;
26060;SDS011;36331;51.378;0.018;2023-03-05T14:47:40;12.65;;;7.97;;
26060;SDS011;36331;51.378;0.018;2023-03-05T14:50:18;12.80;;;8.32;;
26060;SDS011;36331;51.378;0.018;2023-03-05T14:52:48;11.10;;;6.95;;
26060;SDS011;36331;51.378;0.018;2023-03-05T14:55:19;11.13;;;6.85;;
26060;SDS011;36331;51.378;0.018;2023-03-05T14:57:54;12.52;;;6.82;;
26060;SDS011;36331;51.378;0.018;2023-03-05T15:00:26;18.27;;;10.75;;
26060;SDS011;36331;51.378;0.018;2023-03-05T15:02:56;12.82;;;6.97;;
26060;SDS011;36331;51.378;0.018;2023-03-05T15:05:26;12.93;;;8.30;;
26060;SDS011;36331;51.378;0.018;2023-03-05T15:07:55;27.95;;;14.05;;
26060;SDS011;36331;51.378;0.018;2023-03-05T15:10:25;10.70;;;6.75;;
26060;SDS011;36331;51.378;0.018;2023-03-05T15:12:54;12.57;;;7.28;;
26060;SDS011;36331;51.378;0.018;2023-03-05T15:15:23;12.55;;;7.90;;
26060;SDS011;36331;51.378;0.018;2023-03-05T15:17:52;16.25;;;10.18;;
26060;SDS011;36331;51.378;0.018;2023-03-05T15:20:23;11.90;;;7.82;;
26060;SDS011;36331;51.378;0.018;2023-03-05T15:22:54;12.90;;;7.82;;
26060;SDS011;36331;51.378;0.018;2023-03-05T15:25:24;12.73;;;7.07;;
26060;SDS011;36331;51.378;0.018;2023-03-05T15:27:54;13.43;;;7.45;;
26060;SDS011;36331;51.378;0.018;2023-03-05T15:30:24;17.33;;;8.23;;
26060;SDS011;36331;51.378;0.018;2023-03-05T15:32:55;11.18;;;7.75;;
26060;SDS011;36331;51.378;0.018;2023-03-05T15:35:24;11.02;;;6.65;;
26060;SDS011;36331;51.378;0.018;2023-03-05T15:37:55;12.38;;;8.35;;
26060;SDS011;36331;51.378;0.018;2023-03-05T15:40:25;12.55;;;7.85;;
26060;SDS011;36331;51.378;0.018;2023-03-05T15:42:54;16.25;;;9.00;;